Decoded Metar for KTCL (TUSCALOOSA in AL, USA) (IATA:TCL) | Meteo·Mobile Aviation Weather
aviador You're here:

KTCL Decoded Metar

TUSCALOOSA in AL, USA
Report Time2018-12-16 11:07:00
UTC Time2018-12-16 11:28:53
Flight Rules mvfr MVFR
Wind310° at 05 kt
W.Decomp.*RWY 29: 4.7 kt HW 1.7 kt RCW
RWY 22: 5.0 kt RCW
W.Rank310° ranks 11
Current wind is below 310° avg. (6.3)
Visibility9999 m
Phenomena:N/A
Clouds:Overcast 010 Hf
Expected CloudBase > 1,200 ft AGL from Temp-Dew spread
Ceiling1,000 ft
Temp10°C (ISA -5)
Dew Point07°C (82% RH)
AAT7.5°C
QNH1022 hPa
Density Alt-568 ft
Elevation161 ft
Report Wrong Elevation
Raw Report
KTCL 161107Z AUTO 31005KT 10SM OVC010 10/07 A3017 RMK AO2
T01000072=

Extra information for KTCL:More info

Metar Taf Metar & Taf Last 4 Metars F.Rules Stats Wind Profile Meteogram Temp Stats Airport Information Weather charts Add Link Nearby VenuesMetar ALERT Operation Metar Decoded Social comments

AIRNAV info for KTCL